createdAt,value
2019-04-16T00:02:55.400Z,68.12
2019-04-16T00:08:09.740Z,70.82
2019-04-16T00:13:19.318Z,69.88
2019-04-16T00:18:23.342Z,69.44
2019-04-16T00:23:39.429Z,70.93
2019-04-16T00:28:42.516Z,71.09
2019-04-16T00:33:45.570Z,73.21
2019-04-16T00:38:48.607Z,73.01
2019-04-16T00:43:51.804Z,72.22
2019-04-16T00:48:54.973Z,70.71
2019-04-16T00:53:58.017Z,70.62
2019-04-16T00:59:01.187Z,70.79
2019-04-16T01:04:05.322Z,70.90
2019-04-16T01:09:09.006Z,71.52
2019-04-16T01:14:12.179Z,71.27
2019-04-16T01:19:15.547Z,71.62
2019-04-16T01:24:20.213Z,71.24
2019-04-16T01:29:23.974Z,72.26
2019-04-16T01:34:49.433Z,75.90
2019-04-16T01:39:54.297Z,74.45
2019-04-16T01:44:59.781Z,73.47
2019-04-16T01:50:02.660Z,72.57
2019-04-16T01:55:06.232Z,73.50
2019-04-16T02:00:10.035Z,75.38
2019-04-16T02:05:13.598Z,76.02
2019-04-16T02:10:16.869Z,75.61
2019-04-16T02:15:21.935Z,75.45
2019-04-16T02:20:25.003Z,76.08
2019-04-16T02:25:28.452Z,77.56
2019-04-16T02:30:37.578Z,77.46
2019-04-16T02:35:36.531Z,76.04
2019-04-16T02:40:39.736Z,78.07
2019-04-16T02:45:43.070Z,78.34
2019-04-16T02:50:48.688Z,77.90
2019-04-16T02:56:18.757Z,78.01
2019-04-16T03:01:44.810Z,76.63
2019-04-16T03:06:47.930Z,77.27
2019-04-16T03:11:51.338Z,76.82
2019-04-16T03:17:10.667Z,78.61
2019-04-16T03:22:13.251Z,79.82
2019-04-16T03:27:16.407Z,79.96
2019-04-16T03:32:19.467Z,79.91
2019-04-16T03:37:22.666Z,78.86
2019-04-16T03:42:27.381Z,78.53
2019-04-16T03:47:31.121Z,77.90
2019-04-16T03:52:34.523Z,81.54
2019-04-16T03:57:37.578Z,82.53
2019-04-16T04:02:40.729Z,83.19
2019-04-16T04:07:44.953Z,82.71
2019-04-16T04:12:48.344Z,80.30
2019-04-16T04:17:51.525Z,79.50
2019-04-16T04:22:57.059Z,78.35
2019-04-16T04:28:00.017Z,75.95
2019-04-16T04:33:07.426Z,77.32
2019-04-16T04:38:08.066Z,76.17
2019-04-16T04:43:11.237Z,77.06
2019-04-16T04:48:14.395Z,78.94
2019-04-16T04:53:19.434Z,77.63
2019-04-16T04:58:22.566Z,75.71
2019-04-16T05:04:02.137Z,73.32
2019-04-16T05:09:06.585Z,71.64
2019-04-16T05:14:09.672Z,70.31
2019-04-16T05:19:14.852Z,69.25
2019-04-16T05:24:17.869Z,68.35
2019-04-16T05:29:21.006Z,67.61
2019-04-16T05:34:24.094Z,64.82
2019-04-16T05:39:28.590Z,63.46
2019-04-16T05:44:34.015Z,63.66
2019-04-16T05:49:37.107Z,60.48
2019-04-16T05:55:01.408Z,57.07
2019-04-16T06:00:12.240Z,57.89
2019-04-16T06:05:15.628Z,56.95
2019-04-16T06:10:19.224Z,56.95
2019-04-16T06:15:34.369Z,56.02
2019-04-16T06:21:02.957Z,54.81
2019-04-16T06:26:37.759Z,52.99
2019-04-16T06:31:59.682Z,51.52
2019-04-16T06:37:26.758Z,48.06
2019-04-16T06:42:34.552Z,49.59
2019-04-16T06:47:55.849Z,48.42
2019-04-16T06:53:25.038Z,50.44
2019-04-16T06:58:57.242Z,48.48
2019-04-16T07:04:29.513Z,46.51
2019-04-16T07:09:46.680Z,46.24
2019-04-16T07:14:49.794Z,44.68
2019-04-16T07:19:53.012Z,47.53
2019-04-16T07:24:56.899Z,45.91
2019-04-16T07:30:08.868Z,44.28
2019-04-16T07:35:31.956Z,44.80
2019-04-16T07:40:53.047Z,44.89
2019-04-16T07:46:03.550Z,42.77
2019-04-16T07:51:17.592Z,41.46
2019-04-16T07:56:23.384Z,42.91
2019-04-16T08:01:26.664Z,42.76
2019-04-16T08:06:29.731Z,39.67
2019-04-16T08:11:33.352Z,38.40
2019-04-16T08:16:47.134Z,37.03
2019-04-16T08:21:44.249Z,37.56
2019-04-16T08:26:46.578Z,35.45
2019-04-16T08:31:50.067Z,36.21
2019-04-16T08:36:53.142Z,30.28
2019-04-16T08:41:56.279Z,31.55
2019-04-16T08:46:59.606Z,29.41
2019-04-16T08:52:02.901Z,31.19
2019-04-16T08:57:06.364Z,30.60
2019-04-16T09:02:10.510Z,30.96
2019-04-16T09:07:31.739Z,31.65
2019-04-16T09:12:34.937Z,32.15
2019-04-16T09:17:40.790Z,30.62
2019-04-16T09:22:49.364Z,31.70
2019-04-16T09:27:53.192Z,31.44
2019-04-16T09:33:06.504Z,30.62
2019-04-16T09:38:28.031Z,29.79
2019-04-16T09:43:32.046Z,29.09
2019-04-16T09:48:35.604Z,29.61
2019-04-16T09:53:40.365Z,30.38
2019-04-16T09:58:44.133Z,29.72
2019-04-16T10:03:49.527Z,29.56
2019-04-16T10:08:52.789Z,29.56
2019-04-16T10:13:56.008Z,30.12
2019-04-16T10:18:59.472Z,29.46
2019-04-16T10:24:17.536Z,29.80
2019-04-16T10:29:20.812Z,30.00
2019-04-16T10:34:23.979Z,28.36
2019-04-16T10:39:49.402Z,29.35
2019-04-16T10:45:12.929Z,28.81
2019-04-16T10:50:25.779Z,27.53
2019-04-16T10:55:47.473Z,28.50
2019-04-16T11:00:56.475Z,35.97
2019-04-16T11:06:04.302Z,34.60
2019-04-16T11:11:07.478Z,32.12
2019-04-16T11:16:12.548Z,31.26
2019-04-16T11:21:15.953Z,30.81
2019-04-16T11:26:19.371Z,29.32
2019-04-16T11:31:22.665Z,29.40
2019-04-16T11:36:30.601Z,28.18
2019-04-16T11:41:30.835Z,28.84
2019-04-16T11:46:35.154Z,28.25
2019-04-16T11:51:38.274Z,27.80
2019-04-16T11:56:44.744Z,28.01
2019-04-16T12:02:05.851Z,28.57
2019-04-16T12:07:40.592Z,27.47
2019-04-16T12:13:09.052Z,27.72
2019-04-16T12:18:32.297Z,27.71
2019-04-16T12:23:53.488Z,26.54
2019-04-16T12:29:18.901Z,26.51
2019-04-16T12:34:44.240Z,26.21
2019-04-16T12:40:05.501Z,27.56
2019-04-16T12:45:27.098Z,26.81
2019-04-16T12:50:39.043Z,27.12
2019-04-16T12:56:10.584Z,28.22
2019-04-16T13:01:21.378Z,28.34
2019-04-16T13:06:32.887Z,25.63
2019-04-16T13:11:45.100Z,26.11
2019-04-16T13:17:07.052Z,27.08
2019-04-16T13:22:11.090Z,25.80
2019-04-16T13:27:30.824Z,26.27
2019-04-16T13:32:33.990Z,25.53
2019-04-16T13:37:38.039Z,26.22
2019-04-16T13:42:41.397Z,26.14
2019-04-16T13:47:45.808Z,25.77
2019-04-16T13:52:52.006Z,25.51
2019-04-16T13:58:04.257Z,26.54
2019-04-16T14:03:10.512Z,26.07
2019-04-16T14:08:13.641Z,26.35
2019-04-16T14:13:16.788Z,26.00
2019-04-16T14:18:21.808Z,26.47
2019-04-16T14:23:25.030Z,26.56
2019-04-16T14:28:28.176Z,25.65
2019-04-16T14:33:51.159Z,25.54
2019-04-16T14:38:58.050Z,26.05
2019-04-16T14:44:06.672Z,24.70
2019-04-16T14:49:09.923Z,24.83
2019-04-16T14:54:35.934Z,24.08
2019-04-16T14:59:57.165Z,21.63
2019-04-16T15:05:08.506Z,22.53
2019-04-16T15:10:26.167Z,21.65
2019-04-16T15:15:38.454Z,22.35
2019-04-16T15:21:16.343Z,22.75
2019-04-16T15:26:31.061Z,22.87
2019-04-16T15:31:56.128Z,23.05
2019-04-16T15:37:18.833Z,23.86
2019-04-16T15:42:36.433Z,24.25
2019-04-16T15:47:58.222Z,24.12
2019-04-16T15:53:05.574Z,23.68
2019-04-16T15:58:14.431Z,24.61
2019-04-16T16:03:40.192Z,24.66
2019-04-16T16:09:09.241Z,24.19
2019-04-16T16:14:12.581Z,23.75
2019-04-16T16:19:15.717Z,22.68
2019-04-16T16:24:18.802Z,22.60
2019-04-16T16:29:22.062Z,22.52
2019-04-16T16:34:25.441Z,23.36
2019-04-16T16:39:28.796Z,23.01
2019-04-16T16:44:32.057Z,22.76
2019-04-16T16:49:35.618Z,22.71
2019-04-16T16:54:39.075Z,23.15
2019-04-16T17:00:07.518Z,22.93
2019-04-16T17:05:16.298Z,23.17
2019-04-16T17:10:19.483Z,23.91
2019-04-16T17:15:22.915Z,24.76
2019-04-16T17:20:26.373Z,25.02
2019-04-16T17:25:36.505Z,26.38
2019-04-16T17:30:35.618Z,26.95
2019-04-16T17:35:39.102Z,27.25
2019-04-16T17:40:51.117Z,27.49
2019-04-16T17:46:24.940Z,27.26
2019-04-16T17:51:45.102Z,27.37
2019-04-16T17:57:13.828Z,27.48
2019-04-16T18:02:52.113Z,27.43
2019-04-16T18:08:08.069Z,27.56
2019-04-16T18:13:32.245Z,27.68
2019-04-16T18:18:57.188Z,36.80
2019-04-16T18:24:19.031Z,43.01
2019-04-16T18:29:32.826Z,48.99
2019-04-16T18:34:43.429Z,52.88
2019-04-16T18:39:53.434Z,53.94
2019-04-16T18:45:05.036Z,56.03
2019-04-16T18:50:15.602Z,57.18
2019-04-16T18:55:19.099Z,58.68
2019-04-16T19:00:48.193Z,58.01
2019-04-16T19:05:51.298Z,59.07
2019-04-16T19:10:54.977Z,59.37
2019-04-16T19:15:58.510Z,59.51
2019-04-16T19:21:01.718Z,61.21
2019-04-16T19:26:05.558Z,63.37
2019-04-16T19:31:09.060Z,64.83
2019-04-16T19:36:12.676Z,65.20
2019-04-16T19:41:16.033Z,67.34
2019-04-16T19:46:19.719Z,67.57
2019-04-16T19:51:23.116Z,68.10
2019-04-16T19:56:26.492Z,69.92
2019-04-16T20:01:29.837Z,70.94
2019-04-16T20:06:33.520Z,72.07
2019-04-16T20:11:36.969Z,72.92
2019-04-16T20:16:40.273Z,72.82
2019-04-16T20:21:43.412Z,74.09
2019-04-16T20:26:46.633Z,76.05
2019-04-16T20:31:49.782Z,78.49
2019-04-16T20:36:55.796Z,80.16
2019-04-16T20:42:00.117Z,79.18
2019-04-16T20:47:07.733Z,80.48
2019-04-16T20:52:08.456Z,80.25
2019-04-16T20:57:11.609Z,80.12
2019-04-16T21:02:14.697Z,80.64
2019-04-16T21:07:17.825Z,79.20
2019-04-16T21:12:21.146Z,80.51
2019-04-16T21:17:24.617Z,80.79
2019-04-16T21:22:28.909Z,80.35
2019-04-16T21:27:34.842Z,81.23
2019-04-16T21:33:00.543Z,80.94
2019-04-16T21:38:23.153Z,81.09
2019-04-16T21:43:26.434Z,81.19
2019-04-16T21:48:30.011Z,81.61
2019-04-16T21:53:33.188Z,81.49
2019-04-16T21:58:36.720Z,82.93
2019-04-16T22:03:42.256Z,84.11
2019-04-16T22:08:45.087Z,82.44
2019-04-16T22:13:50.715Z,81.67
2019-04-16T22:18:53.376Z,81.71
2019-04-16T22:23:56.591Z,81.12
2019-04-16T22:28:59.640Z,83.23
2019-04-16T22:34:02.841Z,81.68
2019-04-16T22:39:23.911Z,82.00
2019-04-16T22:44:46.522Z,82.10
2019-04-16T22:49:51.568Z,82.09
2019-04-16T22:54:54.846Z,83.47
2019-04-16T22:59:57.899Z,83.18
2019-04-16T23:05:01.007Z,84.12
2019-04-16T23:10:04.861Z,83.08
2019-04-16T23:15:09.859Z,83.54
2019-04-16T23:20:28.150Z,84.09
2019-04-16T23:25:17.957Z,83.95
2019-04-16T23:30:21.057Z,84.40
2019-04-16T23:35:25.069Z,83.38
2019-04-16T23:40:28.304Z,83.95
2019-04-16T23:46:01.373Z,84.77
2019-04-16T23:51:12.656Z,84.03
2019-04-16T23:56:35.344Z,83.26
